PWSweather.com
Personal Weather Stations
Station Observations
KOHCLEVE171
Cleveland, OH

Cleveland, OH

Lat: 41.48646164, Lon: -81.46408081

Elevation: 1059

Station Type:

High Low Average
Temperature 83.7°F28.7°C 70.5°F21.4°C 76.6°F24.8°C
Dew Point 71.2°F21.8°C 62.6°F17.0°C 66.1°F18.9°C
Winds 7.2 mph 11.6 kmh Calm Calm 2.0 mph SSE3.2 kmh SSE
Wind Gusts 12.3 mph19.8 kmh -- 3.0 mph4.8 kmh
Humidity 77% 59% 71%
Pressure 30.04 in1017.3 mb 29.93 in1013.5 mb -
Precipitation 0.29 in7.4 mm - -
Hour Temp Dew Point Humidity Winds Wind Gusts Pressure Precip Precip Rate Daily Precip Total
12:03 AM 72.7°F22.6°C 64.8°F18.2°C 76% 0.9 mph ESE1.4 kmh ESE 1.6 mph2.6 kmh 30.03 in1016.9 mb 0.00 in0.0 mm 0.00 in0.0 mm 0.00 in0.0 mm
12:07 AM 72.7°F22.6°C 64.8°F18.2°C 76% 1.6 mph SE2.6 kmh SE 1.8 mph2.9 kmh 30.03 in1016.9 mb 0.00 in0.0 mm 0.00 in0.0 mm 0.00 in0.0 mm
12:13 AM 72.5°F22.5°C 64.6°F18.1°C 76% 0.7 mph S1.1 kmh S 1.8 mph2.9 kmh 30.03 in1016.9 mb 0.00 in0.0 mm 0.00 in0.0 mm 0.00 in0.0 mm
12:17 AM 72.5°F22.5°C 64.6°F18.1°C 76% 1.3 mph ESE2.1 kmh ESE 1.8 mph2.9 kmh 30.02 in1016.6 mb 0.00 in0.0 mm 0.00 in0.0 mm 0.00 in0.0 mm
12:23 AM 72.5°F22.5°C 64.6°F18.1°C 76% 1.6 mph ESE2.6 kmh ESE 1.8 mph2.9 kmh 30.02 in1016.6 mb 0.00 in0.0 mm 0.00 in0.0 mm 0.00 in0.0 mm
12:27 AM 72.5°F22.5°C 64.6°F18.1°C 76% 1.3 mph SE2.1 kmh SE 1.6 mph2.6 kmh 30.02 in1016.6 mb 0.00 in0.0 mm 0.00 in0.0 mm 0.00 in0.0 mm
12:33 AM 72.3°F22.4°C 64.4°F18.0°C 76% Calm Calm 1.1 mph1.8 kmh 30.02 in1016.6 mb 0.00 in0.0 mm 0.00 in0.0 mm 0.00 in0.0 mm
12:37 AM 72.5°F22.5°C 64.6°F18.1°C 76% 1.3 mph ESE2.1 kmh ESE 1.3 mph2.1 kmh 30.02 in1016.6 mb 0.00 in0.0 mm 0.00 in0.0 mm 0.00 in0.0 mm
12:43 AM 72.3°F22.4°C 64.4°F18.0°C 76% Calm Calm -- 30.02 in1016.6 mb 0.00 in0.0 mm 0.00 in0.0 mm 0.00 in0.0 mm
12:47 AM 72.3°F22.4°C 64.4°F18.0°C 76% Calm Calm -- 30.02 in1016.6 mb 0.00 in0.0 mm 0.00 in0.0 mm 0.00 in0.0 mm
12:53 AM 72.1°F22.3°C 64.2°F17.9°C 76% 0.2 mph S0.3 kmh S 1.1 mph1.8 kmh 30.02 in1016.6 mb 0.00 in0.0 mm 0.00 in0.0 mm 0.00 in0.0 mm
12:57 AM 72.3°F22.4°C 64.4°F18.0°C 76% Calm Calm -- 30.02 in1016.6 mb 0.00 in0.0 mm 0.00 in0.0 mm 0.00 in0.0 mm
01:03 AM 72.0°F22.2°C 64.0°F17.8°C 76% 1.8 mph SE2.9 kmh SE 2.2 mph3.5 kmh 30.02 in1016.6 mb 0.00 in0.0 mm 0.00 in0.0 mm 0.00 in0.0 mm
01:07 AM 72.1°F22.3°C 64.2°F17.9°C 76% 0.9 mph ESE1.4 kmh ESE 1.3 mph2.1 kmh 30.03 in1016.9 mb 0.00 in0.0 mm 0.00 in0.0 mm 0.00 in0.0 mm
01:13 AM 72.0°F22.2°C 64.0°F17.8°C 76% Calm Calm -- 30.02 in1016.6 mb 0.00 in0.0 mm 0.00 in0.0 mm 0.00 in0.0 mm
01:17 AM 72.0°F22.2°C 64.0°F17.8°C 76% 0.2 mph NNW0.3 kmh NNW 0.9 mph1.4 kmh 30.02 in1016.6 mb 0.00 in0.0 mm 0.00 in0.0 mm 0.00 in0.0 mm
01:23 AM 72.0°F22.2°C 64.0°F17.8°C 76% 0.7 mph SE1.1 kmh SE 1.3 mph2.1 kmh 30.02 in1016.6 mb 0.00 in0.0 mm 0.00 in0.0 mm 0.00 in0.0 mm
01:27 AM 72.0°F22.2°C 64.0°F17.8°C 76% 0.9 mph SE1.4 kmh SE 1.1 mph1.8 kmh 30.03 in1016.9 mb 0.00 in0.0 mm 0.00 in0.0 mm 0.00 in0.0 mm
01:33 AM 72.1°F22.3°C 64.2°F17.9°C 76% 0.4 mph S0.6 kmh S 1.1 mph1.8 kmh 30.03 in1016.9 mb 0.00 in0.0 mm 0.00 in0.0 mm 0.00 in0.0 mm
01:37 AM 72.1°F22.3°C 64.2°F17.9°C 76% 0.2 mph SSE0.3 kmh SSE 1.1 mph1.8 kmh 30.03 in1016.9 mb 0.00 in0.0 mm 0.00 in0.0 mm 0.00 in0.0 mm
01:43 AM 72.0°F22.2°C 64.0°F17.8°C 76% 0.7 mph NE1.1 kmh NE 1.3 mph2.1 kmh 30.03 in1016.9 mb 0.00 in0.0 mm 0.00 in0.0 mm 0.00 in0.0 mm
01:47 AM 72.0°F22.2°C 64.0°F17.8°C 76% 0.7 mph E1.1 kmh E 1.8 mph2.9 kmh 30.03 in1016.9 mb 0.00 in0.0 mm 0.00 in0.0 mm 0.00 in0.0 mm
01:53 AM 72.0°F22.2°C 64.0°F17.8°C 76% 1.6 mph E2.6 kmh E 1.8 mph2.9 kmh 30.03 in1016.9 mb 0.00 in0.0 mm 0.00 in0.0 mm 0.00 in0.0 mm
01:57 AM 72.0°F22.2°C 64.0°F17.8°C 76% 1.3 mph SE2.1 kmh SE 2.2 mph3.5 kmh 30.03 in1016.9 mb 0.00 in0.0 mm 0.00 in0.0 mm 0.00 in0.0 mm
02:03 AM 72.0°F22.2°C 64.0°F17.8°C 76% 0.7 mph N1.1 kmh N 1.8 mph2.9 kmh 30.03 in1016.9 mb 0.00 in0.0 mm 0.00 in0.0 mm 0.00 in0.0 mm
02:07 AM 71.8°F22.1°C 63.9°F17.7°C 76% 1.6 mph ESE2.6 kmh ESE 1.8 mph2.9 kmh 30.03 in1016.9 mb 0.00 in0.0 mm 0.00 in0.0 mm 0.00 in0.0 mm
02:13 AM 72.0°F22.2°C 64.0°F17.8°C 76% 1.3 mph E2.1 kmh E 1.8 mph2.9 kmh 30.03 in1016.9 mb 0.00 in0.0 mm 0.00 in0.0 mm 0.00 in0.0 mm
02:17 AM 72.0°F22.2°C 64.0°F17.8°C 76% 1.1 mph E1.8 kmh E 1.6 mph2.6 kmh 30.03 in1016.9 mb 0.00 in0.0 mm 0.00 in0.0 mm 0.00 in0.0 mm
02:23 AM 72.0°F22.2°C 64.0°F17.8°C 76% Calm Calm -- 30.02 in1016.6 mb 0.00 in0.0 mm 0.00 in0.0 mm 0.00 in0.0 mm
02:27 AM 72.0°F22.2°C 64.0°F17.8°C 76% 1.6 mph ESE2.6 kmh ESE 1.8 mph2.9 kmh 30.02 in1016.6 mb 0.00 in0.0 mm 0.00 in0.0 mm 0.00 in0.0 mm
02:33 AM 72.0°F22.2°C 64.0°F17.8°C 76% Calm Calm -- 30.02 in1016.6 mb 0.00 in0.0 mm 0.00 in0.0 mm 0.00 in0.0 mm
02:37 AM 72.0°F22.2°C 64.0°F17.8°C 76% Calm Calm -- 30.02 in1016.6 mb 0.00 in0.0 mm 0.00 in0.0 mm 0.00 in0.0 mm
02:43 AM 72.0°F22.2°C 64.0°F17.8°C 76% 0.7 mph NE1.1 kmh NE 1.1 mph1.8 kmh 30.02 in1016.6 mb 0.00 in0.0 mm 0.00 in0.0 mm 0.00 in0.0 mm
02:47 AM 72.0°F22.2°C 64.0°F17.8°C 76% 0.2 mph SE0.3 kmh SE 1.1 mph1.8 kmh 30.02 in1016.6 mb 0.00 in0.0 mm 0.00 in0.0 mm 0.00 in0.0 mm
02:53 AM 72.0°F22.2°C 64.0°F17.8°C 76% 0.7 mph NE1.1 kmh NE 2.7 mph4.3 kmh 30.02 in1016.6 mb 0.00 in0.0 mm 0.00 in0.0 mm 0.00 in0.0 mm
02:57 AM 72.0°F22.2°C 64.0°F17.8°C 76% 1.3 mph SE2.1 kmh SE 1.8 mph2.9 kmh 30.02 in1016.6 mb 0.00 in0.0 mm 0.00 in0.0 mm 0.00 in0.0 mm
03:03 AM 72.1°F22.3°C 64.2°F17.9°C 76% 1.8 mph SSW2.9 kmh SSW 3.4 mph5.5 kmh 30.02 in1016.6 mb 0.00 in0.0 mm 0.00 in0.0 mm 0.00 in0.0 mm
03:07 AM 72.1°F22.3°C 64.2°F17.9°C 76% 0.9 mph S1.4 kmh S 1.8 mph2.9 kmh 30.02 in1016.6 mb 0.00 in0.0 mm 0.00 in0.0 mm 0.00 in0.0 mm
03:13 AM 72.3°F22.4°C 64.4°F18.0°C 76% 1.3 mph SE2.1 kmh SE 2.0 mph3.2 kmh 30.02 in1016.6 mb 0.00 in0.0 mm 0.00 in0.0 mm 0.00 in0.0 mm
03:17 AM 72.3°F22.4°C 64.4°F18.0°C 76% 1.3 mph ESE2.1 kmh ESE 1.6 mph2.6 kmh 30.02 in1016.6 mb 0.00 in0.0 mm 0.00 in0.0 mm 0.00 in0.0 mm
03:23 AM 72.3°F22.4°C 64.4°F18.0°C 76% 1.3 mph ESE2.1 kmh ESE 1.8 mph2.9 kmh 30.02 in1016.6 mb 0.00 in0.0 mm 0.00 in0.0 mm 0.00 in0.0 mm
03:27 AM 72.3°F22.4°C 64.4°F18.0°C 76% 1.6 mph ESE2.6 kmh ESE 2.0 mph3.2 kmh 30.01 in1016.3 mb 0.00 in0.0 mm 0.00 in0.0 mm 0.00 in0.0 mm
03:33 AM 72.3°F22.4°C 64.4°F18.0°C 76% 0.2 mph ENE0.3 kmh ENE 1.1 mph1.8 kmh 30.02 in1016.6 mb 0.00 in0.0 mm 0.00 in0.0 mm 0.00 in0.0 mm
03:37 AM 72.3°F22.4°C 64.4°F18.0°C 76% 1.3 mph E2.1 kmh E 1.8 mph2.9 kmh 30.01 in1016.3 mb 0.00 in0.0 mm 0.00 in0.0 mm 0.00 in0.0 mm
03:43 AM 72.3°F22.4°C 64.4°F18.0°C 76% 1.1 mph SSE1.8 kmh SSE 1.8 mph2.9 kmh 30.01 in1016.3 mb 0.00 in0.0 mm 0.00 in0.0 mm 0.00 in0.0 mm
03:47 AM 72.3°F22.4°C 64.4°F18.0°C 76% 1.3 mph SE2.1 kmh SE 1.8 mph2.9 kmh 30.01 in1016.3 mb 0.00 in0.0 mm 0.00 in0.0 mm 0.00 in0.0 mm
03:53 AM 72.1°F22.3°C 64.2°F17.9°C 76% 1.6 mph SE2.6 kmh SE 2.2 mph3.5 kmh 30.01 in1016.3 mb 0.00 in0.0 mm 0.00 in0.0 mm 0.00 in0.0 mm
03:57 AM 72.1°F22.3°C 64.2°F17.9°C 76% 0.4 mph S0.6 kmh S 1.3 mph2.1 kmh 30.01 in1016.3 mb 0.00 in0.0 mm 0.00 in0.0 mm 0.00 in0.0 mm
04:03 AM 72.1°F22.3°C 64.2°F17.9°C 76% 0.9 mph SSE1.4 kmh SSE 1.6 mph2.6 kmh 30.01 in1016.3 mb 0.00 in0.0 mm 0.00 in0.0 mm 0.00 in0.0 mm
04:07 AM 72.1°F22.3°C 63.9°F17.7°C 75% 1.6 mph SE2.6 kmh SE 2.2 mph3.5 kmh 30.01 in1016.3 mb 0.00 in0.0 mm 0.00 in0.0 mm 0.00 in0.0 mm
04:13 AM 72.1°F22.3°C 63.9°F17.7°C 75% 1.6 mph ESE2.6 kmh ESE 2.0 mph3.2 kmh 30.01 in1016.3 mb 0.00 in0.0 mm 0.00 in0.0 mm 0.00 in0.0 mm
04:17 AM 72.0°F22.2°C 64.0°F17.8°C 76% 1.3 mph SE2.1 kmh SE 1.8 mph2.9 kmh 30.01 in1016.3 mb 0.00 in0.0 mm 0.00 in0.0 mm 0.00 in0.0 mm
04:23 AM 71.8°F22.1°C 63.9°F17.7°C 76% 0.4 mph SE0.6 kmh SE 1.1 mph1.8 kmh 30.01 in1016.3 mb 0.00 in0.0 mm 0.00 in0.0 mm 0.00 in0.0 mm
04:27 AM 71.8°F22.1°C 63.9°F17.7°C 76% 1.6 mph S2.6 kmh S 2.0 mph3.2 kmh 30.01 in1016.3 mb 0.00 in0.0 mm 0.00 in0.0 mm 0.00 in0.0 mm
04:33 AM 71.6°F22.0°C 63.7°F17.6°C 76% 0.7 mph SSE1.1 kmh SSE 1.6 mph2.6 kmh 30.01 in1016.3 mb 0.00 in0.0 mm 0.00 in0.0 mm 0.00 in0.0 mm
04:37 AM 71.6°F22.0°C 63.7°F17.6°C 76% 1.1 mph SE1.8 kmh SE 1.6 mph2.6 kmh 30.01 in1016.3 mb 0.00 in0.0 mm 0.00 in0.0 mm 0.00 in0.0 mm
04:43 AM 71.6°F22.0°C 63.7°F17.6°C 76% 0.9 mph SSE1.4 kmh SSE 1.3 mph2.1 kmh 30.01 in1016.3 mb 0.00 in0.0 mm 0.00 in0.0 mm 0.00 in0.0 mm
04:47 AM 71.4°F21.9°C 63.5°F17.5°C 76% 1.6 mph SE2.6 kmh SE 2.0 mph3.2 kmh 30.01 in1016.3 mb 0.00 in0.0 mm 0.00 in0.0 mm 0.00 in0.0 mm
04:53 AM 71.4°F21.9°C 63.5°F17.5°C 76% 1.3 mph SE2.1 kmh SE 1.6 mph2.6 kmh 30.01 in1016.3 mb 0.00 in0.0 mm 0.00 in0.0 mm 0.00 in0.0 mm
04:57 AM 71.2°F21.8°C 63.3°F17.4°C 76% 1.8 mph SE2.9 kmh SE 2.5 mph4.0 kmh 30.01 in1016.3 mb 0.00 in0.0 mm 0.00 in0.0 mm 0.00 in0.0 mm
05:03 AM 71.2°F21.8°C 63.3°F17.4°C 76% 0.7 mph ESE1.1 kmh ESE 1.3 mph2.1 kmh 30.01 in1016.3 mb 0.00 in0.0 mm 0.00 in0.0 mm 0.00 in0.0 mm
05:07 AM 71.2°F21.8°C 63.3°F17.4°C 76% 0.7 mph E1.1 kmh E 1.6 mph2.6 kmh 30.01 in1016.3 mb 0.00 in0.0 mm 0.00 in0.0 mm 0.00 in0.0 mm
05:13 AM 71.1°F21.7°C 63.1°F17.3°C 76% 1.3 mph ESE2.1 kmh ESE 1.6 mph2.6 kmh 30.01 in1016.3 mb 0.00 in0.0 mm 0.00 in0.0 mm 0.00 in0.0 mm
05:17 AM 70.9°F21.6°C 63.0°F17.2°C 76% 1.3 mph SE2.1 kmh SE 1.6 mph2.6 kmh 30.01 in1016.3 mb 0.00 in0.0 mm 0.00 in0.0 mm 0.00 in0.0 mm
05:23 AM 70.9°F21.6°C 63.0°F17.2°C 76% 1.1 mph ESE1.8 kmh ESE 1.8 mph2.9 kmh 30.02 in1016.6 mb 0.00 in0.0 mm 0.00 in0.0 mm 0.00 in0.0 mm
05:27 AM 70.9°F21.6°C 63.0°F17.2°C 76% Calm Calm -- 30.02 in1016.6 mb 0.00 in0.0 mm 0.00 in0.0 mm 0.00 in0.0 mm
05:33 AM 70.7°F21.5°C 62.8°F17.1°C 76% Calm Calm -- 30.02 in1016.6 mb 0.00 in0.0 mm 0.00 in0.0 mm 0.00 in0.0 mm
05:37 AM 70.7°F21.5°C 62.8°F17.1°C 76% Calm Calm -- 30.01 in1016.3 mb 0.00 in0.0 mm 0.00 in0.0 mm 0.00 in0.0 mm
05:43 AM 70.9°F21.6°C 63.0°F17.2°C 76% 1.1 mph ESE1.8 kmh ESE 1.3 mph2.1 kmh 30.01 in1016.3 mb 0.00 in0.0 mm 0.00 in0.0 mm 0.00 in0.0 mm
05:47 AM 70.9°F21.6°C 63.0°F17.2°C 76% Calm Calm -- 30.02 in1016.6 mb 0.00 in0.0 mm 0.00 in0.0 mm 0.00 in0.0 mm
05:53 AM 70.7°F21.5°C 62.8°F17.1°C 76% Calm Calm 0.9 mph1.4 kmh 30.02 in1016.6 mb 0.00 in0.0 mm 0.00 in0.0 mm 0.00 in0.0 mm
05:57 AM 70.7°F21.5°C 62.8°F17.1°C 76% Calm Calm 0.9 mph1.4 kmh 30.02 in1016.6 mb 0.00 in0.0 mm 0.00 in0.0 mm 0.00 in0.0 mm
06:03 AM 70.7°F21.5°C 62.8°F17.1°C 76% 1.8 mph SE2.9 kmh SE 2.2 mph3.5 kmh 30.02 in1016.6 mb 0.00 in0.0 mm 0.00 in0.0 mm 0.00 in0.0 mm
06:07 AM 70.7°F21.5°C 62.8°F17.1°C 76% 0.2 mph N0.3 kmh N 1.1 mph1.8 kmh 30.03 in1016.9 mb 0.00 in0.0 mm 0.00 in0.0 mm 0.00 in0.0 mm
06:13 AM 70.5°F21.4°C 62.6°F17.0°C 76% 1.8 mph E2.9 kmh E 2.7 mph4.3 kmh 30.03 in1016.9 mb 0.00 in0.0 mm 0.00 in0.0 mm 0.00 in0.0 mm
06:17 AM 70.7°F21.5°C 62.8°F17.1°C 76% Calm Calm 1.3 mph2.1 kmh 30.03 in1016.9 mb 0.00 in0.0 mm 0.00 in0.0 mm 0.00 in0.0 mm
06:23 AM 70.7°F21.5°C 62.8°F17.1°C 76% 1.1 mph E1.8 kmh E 1.6 mph2.6 kmh 30.03 in1016.9 mb 0.00 in0.0 mm 0.00 in0.0 mm 0.00 in0.0 mm
06:27 AM 70.7°F21.5°C 62.8°F17.1°C 76% 0.7 mph NE1.1 kmh NE 1.1 mph1.8 kmh 30.02 in1016.6 mb 0.00 in0.0 mm 0.00 in0.0 mm 0.00 in0.0 mm
06:33 AM 70.7°F21.5°C 62.8°F17.1°C 76% 1.8 mph NNE2.9 kmh NNE 2.0 mph3.2 kmh 30.03 in1016.9 mb 0.00 in0.0 mm 0.00 in0.0 mm 0.00 in0.0 mm
06:37 AM 70.7°F21.5°C 62.8°F17.1°C 76% 1.1 mph SE1.8 kmh SE 1.8 mph2.9 kmh 30.03 in1016.9 mb 0.00 in0.0 mm 0.00 in0.0 mm 0.00 in0.0 mm
06:43 AM 70.9°F21.6°C 63.0°F17.2°C 76% 1.1 mph SE1.8 kmh SE 1.1 mph1.8 kmh 30.03 in1016.9 mb 0.00 in0.0 mm 0.00 in0.0 mm 0.00 in0.0 mm
06:46 AM 70.9°F21.6°C 63.0°F17.2°C 76% 1.8 mph S2.9 kmh S 2.2 mph3.5 kmh 30.03 in1016.9 mb 0.00 in0.0 mm 0.00 in0.0 mm 0.00 in0.0 mm
06:53 AM 71.2°F21.8°C 63.3°F17.4°C 76% 1.3 mph ESE2.1 kmh ESE 2.2 mph3.5 kmh 30.03 in1016.9 mb 0.00 in0.0 mm 0.00 in0.0 mm 0.00 in0.0 mm
06:57 AM 71.2°F21.8°C 63.3°F17.4°C 76% 1.8 mph ENE2.9 kmh ENE 2.7 mph4.3 kmh 30.03 in1016.9 mb 0.00 in0.0 mm 0.00 in0.0 mm 0.00 in0.0 mm
07:03 AM 71.2°F21.8°C 63.3°F17.4°C 76% 1.8 mph ESE2.9 kmh ESE 2.0 mph3.2 kmh 30.03 in1016.9 mb 0.00 in0.0 mm 0.00 in0.0 mm 0.00 in0.0 mm
07:07 AM 71.2°F21.8°C 63.3°F17.4°C 76% 0.7 mph E1.1 kmh E 1.3 mph2.1 kmh 30.03 in1016.9 mb 0.00 in0.0 mm 0.00 in0.0 mm 0.00 in0.0 mm
07:13 AM 71.4°F21.9°C 63.5°F17.5°C 76% 1.3 mph SE2.1 kmh SE 1.8 mph2.9 kmh 30.04 in1017.3 mb 0.00 in0.0 mm 0.00 in0.0 mm 0.00 in0.0 mm
07:17 AM 71.4°F21.9°C 63.5°F17.5°C 76% Calm Calm -- 30.04 in1017.3 mb 0.00 in0.0 mm 0.00 in0.0 mm 0.00 in0.0 mm
07:23 AM 71.6°F22.0°C 63.7°F17.6°C 76% 1.3 mph E2.1 kmh E 2.0 mph3.2 kmh 30.03 in1016.9 mb 0.00 in0.0 mm 0.00 in0.0 mm 0.00 in0.0 mm
07:27 AM 71.8°F22.1°C 63.9°F17.7°C 76% 1.3 mph SE2.1 kmh SE 1.6 mph2.6 kmh 30.04 in1017.3 mb 0.00 in0.0 mm 0.00 in0.0 mm 0.00 in0.0 mm
07:33 AM 72.1°F22.3°C 64.2°F17.9°C 76% 1.8 mph SE2.9 kmh SE 2.2 mph3.5 kmh 30.04 in1017.3 mb 0.00 in0.0 mm 0.00 in0.0 mm 0.00 in0.0 mm
07:37 AM 72.3°F22.4°C 64.4°F18.0°C 76% 1.1 mph SE1.8 kmh SE 1.8 mph2.9 kmh 30.03 in1016.9 mb 0.00 in0.0 mm 0.00 in0.0 mm 0.00 in0.0 mm
07:43 AM 72.7°F22.6°C 64.8°F18.2°C 76% 0.4 mph SE0.6 kmh SE 1.1 mph1.8 kmh 30.03 in1016.9 mb 0.00 in0.0 mm 0.00 in0.0 mm 0.00 in0.0 mm
07:47 AM 72.9°F22.7°C 64.9°F18.3°C 76% 1.8 mph ESE2.9 kmh ESE 2.2 mph3.5 kmh 30.03 in1016.9 mb 0.00 in0.0 mm 0.00 in0.0 mm 0.00 in0.0 mm
07:53 AM 73.2°F22.9°C 64.8°F18.2°C 75% Calm Calm -- 30.03 in1016.9 mb 0.00 in0.0 mm 0.00 in0.0 mm 0.00 in0.0 mm
07:57 AM 73.4°F23.0°C 64.9°F18.3°C 75% 1.3 mph SE2.1 kmh SE 1.8 mph2.9 kmh 30.03 in1016.9 mb 0.00 in0.0 mm 0.00 in0.0 mm 0.00 in0.0 mm
08:03 AM 73.6°F23.1°C 65.1°F18.4°C 75% 0.7 mph SE1.1 kmh SE 1.6 mph2.6 kmh 30.03 in1016.9 mb 0.00 in0.0 mm 0.00 in0.0 mm 0.00 in0.0 mm
08:07 AM 73.8°F23.2°C 65.3°F18.5°C 75% 1.6 mph SW2.6 kmh SW 2.5 mph4.0 kmh 30.04 in1017.3 mb 0.00 in0.0 mm 0.00 in0.0 mm 0.00 in0.0 mm
08:13 AM 74.1°F23.4°C 65.7°F18.7°C 75% 1.8 mph SW2.9 kmh SW 2.9 mph4.7 kmh 30.04 in1017.3 mb 0.00 in0.0 mm 0.00 in0.0 mm 0.00 in0.0 mm
08:17 AM 74.1°F23.4°C 65.3°F18.5°C 74% 1.1 mph SE1.8 kmh SE 1.1 mph1.8 kmh 30.04 in1017.3 mb 0.00 in0.0 mm 0.00 in0.0 mm 0.00 in0.0 mm
08:23 AM 74.1°F23.4°C 65.3°F18.5°C 74% 0.4 mph SW0.6 kmh SW 1.3 mph2.1 kmh 30.04 in1017.3 mb 0.00 in0.0 mm 0.00 in0.0 mm 0.00 in0.0 mm
08:27 AM 74.1°F23.4°C 65.3°F18.5°C 74% 1.1 mph S1.8 kmh S 1.8 mph2.9 kmh 30.04 in1017.3 mb 0.00 in0.0 mm 0.00 in0.0 mm 0.00 in0.0 mm
08:33 AM 74.5°F23.6°C 65.7°F18.7°C 74% 2.0 mph SSW3.2 kmh SSW 2.5 mph4.0 kmh 30.04 in1017.3 mb 0.00 in0.0 mm 0.00 in0.0 mm 0.00 in0.0 mm
08:37 AM 74.7°F23.7°C 65.8°F18.8°C 74% 1.6 mph S2.6 kmh S 1.8 mph2.9 kmh 30.04 in1017.3 mb 0.00 in0.0 mm 0.00 in0.0 mm 0.00 in0.0 mm
08:43 AM 74.8°F23.8°C 66.0°F18.9°C 74% 2.2 mph SSW3.5 kmh SSW 4.7 mph7.6 kmh 30.04 in1017.3 mb 0.00 in0.0 mm 0.00 in0.0 mm 0.00 in0.0 mm
08:47 AM 74.8°F23.8°C 66.0°F18.9°C 74% 2.2 mph WSW3.5 kmh WSW 4.5 mph7.2 kmh 30.04 in1017.3 mb 0.00 in0.0 mm 0.00 in0.0 mm 0.00 in0.0 mm
08:53 AM 75.0°F23.9°C 65.8°F18.8°C 73% 2.7 mph SW4.3 kmh SW 4.5 mph7.2 kmh 30.04 in1017.3 mb 0.00 in0.0 mm 0.00 in0.0 mm 0.00 in0.0 mm
08:57 AM 75.2°F24.0°C 66.0°F18.9°C 73% 3.1 mph S5.0 kmh S 4.0 mph6.4 kmh 30.04 in1017.3 mb 0.00 in0.0 mm 0.00 in0.0 mm 0.00 in0.0 mm
09:03 AM 75.4°F24.1°C 66.2°F19.0°C 73% 1.8 mph S2.9 kmh S 3.1 mph5.0 kmh 30.04 in1017.3 mb 0.00 in0.0 mm 0.00 in0.0 mm 0.00 in0.0 mm
09:07 AM 75.6°F24.2°C 65.8°F18.8°C 72% 3.4 mph SSW5.5 kmh SSW 5.4 mph8.7 kmh 30.04 in1017.3 mb 0.00 in0.0 mm 0.00 in0.0 mm 0.00 in0.0 mm
09:13 AM 75.6°F24.2°C 65.8°F18.8°C 72% 2.9 mph S4.7 kmh S 3.6 mph5.8 kmh 30.04 in1017.3 mb 0.00 in0.0 mm 0.00 in0.0 mm 0.00 in0.0 mm
09:17 AM 75.7°F24.3°C 66.0°F18.9°C 72% 1.8 mph S2.9 kmh S 3.6 mph5.8 kmh 30.04 in1017.3 mb 0.00 in0.0 mm 0.00 in0.0 mm 0.00 in0.0 mm
09:23 AM 76.3°F24.6°C 66.2°F19.0°C 71% 2.5 mph SW4.0 kmh SW 5.1 mph8.2 kmh 30.04 in1017.3 mb 0.00 in0.0 mm 0.00 in0.0 mm 0.00 in0.0 mm
09:27 AM 76.5°F24.7°C 66.7°F19.3°C 72% 1.3 mph SSW2.1 kmh SSW 4.0 mph6.4 kmh 30.04 in1017.3 mb 0.00 in0.0 mm 0.00 in0.0 mm 0.00 in0.0 mm
09:33 AM 76.6°F24.8°C 66.9°F19.4°C 72% 1.8 mph SW2.9 kmh SW 4.5 mph7.2 kmh 30.04 in1017.3 mb 0.00 in0.0 mm 0.00 in0.0 mm 0.00 in0.0 mm
09:37 AM 76.6°F24.8°C 66.6°F19.2°C 71% 1.8 mph SW2.9 kmh SW 4.7 mph7.6 kmh 30.04 in1017.3 mb 0.00 in0.0 mm 0.00 in0.0 mm 0.00 in0.0 mm
09:43 AM 76.6°F24.8°C 66.6°F19.2°C 71% 1.3 mph SSE2.1 kmh SSE 1.6 mph2.6 kmh 30.03 in1016.9 mb 0.00 in0.0 mm 0.00 in0.0 mm 0.00 in0.0 mm
09:47 AM 76.5°F24.7°C 66.4°F19.1°C 71% 0.4 mph S0.6 kmh S 1.6 mph2.6 kmh 30.04 in1017.3 mb 0.00 in0.0 mm 0.00 in0.0 mm 0.00 in0.0 mm
09:53 AM 76.5°F24.7°C 66.4°F19.1°C 71% 2.0 mph SSW3.2 kmh SSW 2.7 mph4.3 kmh 30.04 in1017.3 mb 0.00 in0.0 mm 0.00 in0.0 mm 0.00 in0.0 mm
09:57 AM 76.5°F24.7°C 66.4°F19.1°C 71% 0.4 mph S0.6 kmh S 1.1 mph1.8 kmh 30.03 in1016.9 mb 0.00 in0.0 mm 0.00 in0.0 mm 0.00 in0.0 mm
10:03 AM 76.8°F24.9°C 66.7°F19.3°C 71% 1.1 mph S1.8 kmh S 2.0 mph3.2 kmh 30.03 in1016.9 mb 0.00 in0.0 mm 0.00 in0.0 mm 0.00 in0.0 mm
10:07 AM 77.0°F25.0°C 66.9°F19.4°C 71% 1.8 mph SW2.9 kmh SW 3.4 mph5.5 kmh 30.03 in1016.9 mb 0.00 in0.0 mm 0.00 in0.0 mm 0.00 in0.0 mm
10:13 AM 77.5°F25.3°C 67.5°F19.7°C 71% 3.1 mph SSW5.0 kmh SSW 4.0 mph6.4 kmh 30.03 in1016.9 mb 0.00 in0.0 mm 0.00 in0.0 mm 0.00 in0.0 mm
10:17 AM 77.9°F25.5°C 67.8°F19.9°C 71% 2.5 mph SW4.0 kmh SW 4.7 mph7.6 kmh 30.03 in1016.9 mb 0.00 in0.0 mm 0.00 in0.0 mm 0.00 in0.0 mm
10:23 AM 78.3°F25.7°C 68.0°F20.0°C 71% 2.7 mph S4.3 kmh S 5.4 mph8.7 kmh 30.03 in1016.9 mb 0.00 in0.0 mm 0.00 in0.0 mm 0.00 in0.0 mm
10:27 AM 78.3°F25.7°C 67.3°F19.6°C 69% 3.1 mph SSW5.0 kmh SSW 5.6 mph9.0 kmh 30.03 in1016.9 mb 0.00 in0.0 mm 0.00 in0.0 mm 0.00 in0.0 mm
10:33 AM 78.4°F25.8°C 67.5°F19.7°C 69% 1.8 mph SSW2.9 kmh SSW 4.0 mph6.4 kmh 30.03 in1016.9 mb 0.00 in0.0 mm 0.00 in0.0 mm 0.00 in0.0 mm
10:37 AM 78.8°F26.0°C 67.3°F19.6°C 68% 5.4 mph SW8.7 kmh SW 7.8 mph12.6 kmh 30.03 in1016.9 mb 0.00 in0.0 mm 0.00 in0.0 mm 0.00 in0.0 mm
10:43 AM 78.8°F26.0°C 67.8°F19.9°C 69% 1.3 mph SSE2.1 kmh SSE 2.7 mph4.3 kmh 30.03 in1016.9 mb 0.00 in0.0 mm 0.00 in0.0 mm 0.00 in0.0 mm
10:47 AM 78.8°F26.0°C 67.8°F19.9°C 69% 3.6 mph S5.8 kmh S 4.7 mph7.6 kmh 30.03 in1016.9 mb 0.00 in0.0 mm 0.00 in0.0 mm 0.00 in0.0 mm
10:53 AM 79.0°F26.1°C 67.5°F19.7°C 68% 2.0 mph SW3.2 kmh SW 3.4 mph5.5 kmh 30.03 in1016.9 mb 0.00 in0.0 mm 0.00 in0.0 mm 0.00 in0.0 mm
10:57 AM 79.3°F26.3°C 68.4°F20.2°C 69% 1.3 mph SSW2.1 kmh SSW 2.5 mph4.0 kmh 30.03 in1016.9 mb 0.00 in0.0 mm 0.00 in0.0 mm 0.00 in0.0 mm
11:03 AM 79.9°F26.6°C 68.0°F20.0°C 67% 1.8 mph SSW2.9 kmh SSW 3.4 mph5.5 kmh 30.03 in1016.9 mb 0.00 in0.0 mm 0.00 in0.0 mm 0.00 in0.0 mm
11:07 AM 80.1°F26.7°C 68.2°F20.1°C 67% 4.3 mph SSW6.9 kmh SSW 6.3 mph10.1 kmh 30.03 in1016.9 mb 0.00 in0.0 mm 0.00 in0.0 mm 0.00 in0.0 mm
11:13 AM 80.2°F26.8°C 68.7°F20.4°C 68% 0.2 mph ESE0.3 kmh ESE 1.3 mph2.1 kmh 30.03 in1016.9 mb 0.00 in0.0 mm 0.00 in0.0 mm 0.00 in0.0 mm
11:17 AM 80.4°F26.9°C 68.0°F20.0°C 66% 0.9 mph E1.4 kmh E 3.1 mph5.0 kmh 30.03 in1016.9 mb 0.00 in0.0 mm 0.00 in0.0 mm 0.00 in0.0 mm
11:23 AM 80.4°F26.9°C 68.5°F20.3°C 67% 3.8 mph SSW6.1 kmh SSW 8.3 mph13.4 kmh 30.03 in1016.9 mb 0.00 in0.0 mm 0.00 in0.0 mm 0.00 in0.0 mm
11:27 AM 80.6°F27.0°C 68.2°F20.1°C 66% 2.2 mph S3.5 kmh S 5.8 mph9.3 kmh 30.03 in1016.9 mb 0.00 in0.0 mm 0.00 in0.0 mm 0.00 in0.0 mm
11:33 AM 81.0°F27.2°C 68.2°F20.1°C 65% 2.9 mph SSW4.7 kmh SSW 3.8 mph6.1 kmh 30.03 in1016.9 mb 0.00 in0.0 mm 0.00 in0.0 mm 0.00 in0.0 mm
11:37 AM 81.3°F27.4°C 68.4°F20.2°C 65% 2.5 mph S4.0 kmh S 3.4 mph5.5 kmh 30.03 in1016.9 mb 0.00 in0.0 mm 0.00 in0.0 mm 0.00 in0.0 mm
11:43 AM 81.5°F27.5°C 69.1°F20.6°C 66% 2.9 mph SSW4.7 kmh SSW 4.3 mph6.9 kmh 30.03 in1016.9 mb 0.00 in0.0 mm 0.00 in0.0 mm 0.00 in0.0 mm
11:47 AM 81.7°F27.6°C 68.4°F20.2°C 64% 1.8 mph S2.9 kmh S 3.8 mph6.1 kmh 30.03 in1016.9 mb 0.00 in0.0 mm 0.00 in0.0 mm 0.00 in0.0 mm
11:53 AM 81.7°F27.6°C 68.4°F20.2°C 64% 5.4 mph S8.7 kmh S 7.2 mph11.6 kmh 30.03 in1016.9 mb 0.00 in0.0 mm 0.00 in0.0 mm 0.00 in0.0 mm
11:57 AM 81.7°F27.6°C 67.5°F19.7°C 62% 2.2 mph S3.5 kmh S 3.1 mph5.0 kmh 30.03 in1016.9 mb 0.00 in0.0 mm 0.00 in0.0 mm 0.00 in0.0 mm
12:03 PM 81.3°F27.4°C 68.0°F20.0°C 64% 1.8 mph S2.9 kmh S 2.9 mph4.7 kmh 30.03 in1016.9 mb 0.00 in0.0 mm 0.00 in0.0 mm 0.00 in0.0 mm
12:07 PM 81.3°F27.4°C 68.0°F20.0°C 64% 2.2 mph S3.5 kmh S 3.6 mph5.8 kmh 30.03 in1016.9 mb 0.00 in0.0 mm 0.00 in0.0 mm 0.00 in0.0 mm
12:13 PM 81.3°F27.4°C 67.1°F19.5°C 62% 2.7 mph SW4.3 kmh SW 5.1 mph8.2 kmh 30.04 in1017.3 mb 0.00 in0.0 mm 0.00 in0.0 mm 0.00 in0.0 mm
12:17 PM 81.1°F27.3°C 66.9°F19.4°C 62% 3.6 mph SSW5.8 kmh SSW 4.7 mph7.6 kmh 30.04 in1017.3 mb 0.00 in0.0 mm 0.00 in0.0 mm 0.00 in0.0 mm
12:23 PM 80.8°F27.1°C 66.6°F19.2°C 62% 1.1 mph S1.8 kmh S 1.8 mph2.9 kmh 30.03 in1016.9 mb 0.00 in0.0 mm 0.00 in0.0 mm 0.00 in0.0 mm
12:27 PM 80.6°F27.0°C 67.3°F19.6°C 64% 2.7 mph SSW4.3 kmh SSW 4.3 mph6.9 kmh 30.04 in1017.3 mb 0.00 in0.0 mm 0.00 in0.0 mm 0.00 in0.0 mm
12:33 PM 80.8°F27.1°C 67.5°F19.7°C 64% 2.5 mph SSW4.0 kmh SSW 4.5 mph7.2 kmh 30.03 in1016.9 mb 0.00 in0.0 mm 0.00 in0.0 mm 0.00 in0.0 mm
12:37 PM 80.6°F27.0°C 67.8°F19.9°C 65% 2.2 mph S3.5 kmh S 4.0 mph6.4 kmh 30.03 in1016.9 mb 0.00 in0.0 mm 0.00 in0.0 mm 0.00 in0.0 mm
12:43 PM 80.8°F27.1°C 67.5°F19.7°C 64% 4.3 mph S6.9 kmh S 7.4 mph11.9 kmh 30.03 in1016.9 mb 0.00 in0.0 mm 0.00 in0.0 mm 0.00 in0.0 mm
12:47 PM 80.8°F27.1°C 66.6°F19.2°C 62% 2.7 mph SSW4.3 kmh SSW 4.3 mph6.9 kmh 30.03 in1016.9 mb 0.00 in0.0 mm 0.00 in0.0 mm 0.00 in0.0 mm
12:53 PM 81.0°F27.2°C 66.7°F19.3°C 62% 2.7 mph SSW4.3 kmh SSW 5.4 mph8.7 kmh 30.03 in1016.9 mb 0.00 in0.0 mm 0.00 in0.0 mm 0.00 in0.0 mm
12:57 PM 81.3°F27.4°C 66.6°F19.2°C 61% 2.7 mph SSW4.3 kmh SSW 5.6 mph9.0 kmh 30.03 in1016.9 mb 0.00 in0.0 mm 0.00 in0.0 mm 0.00 in0.0 mm
01:03 PM 81.3°F27.4°C 66.6°F19.2°C 61% 5.6 mph SW9.0 kmh SW 10.1 mph16.3 kmh 30.03 in1016.9 mb 0.00 in0.0 mm 0.00 in0.0 mm 0.00 in0.0 mm
01:07 PM 81.3°F27.4°C 66.2°F19.0°C 60% 2.5 mph SSW4.0 kmh SSW 4.9 mph7.9 kmh 30.03 in1016.9 mb 0.00 in0.0 mm 0.00 in0.0 mm 0.00 in0.0 mm
01:13 PM 81.1°F27.3°C 66.9°F19.4°C 62% 2.7 mph SW4.3 kmh SW 6.0 mph9.7 kmh 30.02 in1016.6 mb 0.00 in0.0 mm 0.00 in0.0 mm 0.00 in0.0 mm
01:17 PM 81.1°F27.3°C 66.9°F19.4°C 62% 4.0 mph SSW6.4 kmh SSW 6.3 mph10.1 kmh 30.02 in1016.6 mb 0.00 in0.0 mm 0.00 in0.0 mm 0.00 in0.0 mm
01:23 PM 81.1°F27.3°C 66.4°F19.1°C 61% 3.4 mph SW5.5 kmh SW 4.7 mph7.6 kmh 30.02 in1016.6 mb 0.00 in0.0 mm 0.00 in0.0 mm 0.00 in0.0 mm
01:27 PM 81.1°F27.3°C 66.9°F19.4°C 62% 2.7 mph SSW4.3 kmh SSW 4.7 mph7.6 kmh 30.02 in1016.6 mb 0.00 in0.0 mm 0.00 in0.0 mm 0.00 in0.0 mm
01:33 PM 81.3°F27.4°C 67.1°F19.5°C 62% 3.4 mph SW5.5 kmh SW 5.6 mph9.0 kmh 30.02 in1016.6 mb 0.00 in0.0 mm 0.00 in0.0 mm 0.00 in0.0 mm
01:37 PM 81.5°F27.5°C 66.7°F19.3°C 61% 3.4 mph SW5.5 kmh SW 7.2 mph11.6 kmh 30.02 in1016.6 mb 0.00 in0.0 mm 0.00 in0.0 mm 0.00 in0.0 mm
01:43 PM 81.3°F27.4°C 67.1°F19.5°C 62% 3.6 mph SSW5.8 kmh SSW 6.7 mph10.8 kmh 30.02 in1016.6 mb 0.00 in0.0 mm 0.00 in0.0 mm 0.00 in0.0 mm
01:47 PM 81.3°F27.4°C 67.1°F19.5°C 62% 3.1 mph S5.0 kmh S 5.4 mph8.7 kmh 30.01 in1016.3 mb 0.00 in0.0 mm 0.00 in0.0 mm 0.00 in0.0 mm
01:53 PM 81.3°F27.4°C 66.6°F19.2°C 61% 2.9 mph S4.7 kmh S 4.7 mph7.6 kmh 30.01 in1016.3 mb 0.00 in0.0 mm 0.00 in0.0 mm 0.00 in0.0 mm
01:57 PM 81.3°F27.4°C 66.6°F19.2°C 61% 5.6 mph SW9.0 kmh SW 8.9 mph14.3 kmh 30.01 in1016.3 mb 0.00 in0.0 mm 0.00 in0.0 mm 0.00 in0.0 mm
02:03 PM 82.0°F27.8°C 66.7°F19.3°C 60% 2.5 mph S4.0 kmh S 5.1 mph8.2 kmh 30.01 in1016.3 mb 0.00 in0.0 mm 0.00 in0.0 mm 0.00 in0.0 mm
02:07 PM 82.0°F27.8°C 67.3°F19.6°C 61% 2.2 mph SSW3.5 kmh SSW 3.8 mph6.1 kmh 30.01 in1016.3 mb 0.00 in0.0 mm 0.00 in0.0 mm 0.00 in0.0 mm
02:13 PM 82.0°F27.8°C 67.3°F19.6°C 61% 3.1 mph S5.0 kmh S 4.3 mph6.9 kmh 30.01 in1016.3 mb 0.00 in0.0 mm 0.00 in0.0 mm 0.00 in0.0 mm
02:17 PM 82.0°F27.8°C 67.3°F19.6°C 61% 2.7 mph SSW4.3 kmh SSW 4.5 mph7.2 kmh 30.01 in1016.3 mb 0.00 in0.0 mm 0.00 in0.0 mm 0.00 in0.0 mm
02:23 PM 82.4°F28.0°C 67.6°F19.8°C 61% 1.1 mph SSW1.8 kmh SSW 2.0 mph3.2 kmh 30.01 in1016.3 mb 0.00 in0.0 mm 0.00 in0.0 mm 0.00 in0.0 mm
02:27 PM 82.6°F28.1°C 67.8°F19.9°C 61% 3.1 mph SW5.0 kmh SW 4.5 mph7.2 kmh 30.00 in1015.9 mb 0.00 in0.0 mm 0.00 in0.0 mm 0.00 in0.0 mm
02:33 PM 82.4°F28.0°C 68.0°F20.0°C 62% 2.2 mph SSW3.5 kmh SSW 5.6 mph9.0 kmh 30.00 in1015.9 mb 0.00 in0.0 mm 0.00 in0.0 mm 0.00 in0.0 mm
02:37 PM 82.6°F28.1°C 68.2°F20.1°C 62% 1.8 mph S2.9 kmh S 4.7 mph7.6 kmh 30.00 in1015.9 mb 0.00 in0.0 mm 0.00 in0.0 mm 0.00 in0.0 mm
02:43 PM 82.8°F28.2°C 68.4°F20.2°C 62% 4.3 mph S6.9 kmh S 8.3 mph13.4 kmh 30.00 in1015.9 mb 0.00 in0.0 mm 0.00 in0.0 mm 0.00 in0.0 mm
02:47 PM 83.1°F28.4°C 68.7°F20.4°C 62% 1.1 mph W1.8 kmh W 2.7 mph4.3 kmh 29.99 in1015.6 mb 0.00 in0.0 mm 0.00 in0.0 mm 0.00 in0.0 mm
02:53 PM 82.9°F28.3°C 68.5°F20.3°C 62% 4.5 mph SSW7.2 kmh SSW 8.3 mph13.4 kmh 29.99 in1015.6 mb 0.00 in0.0 mm 0.00 in0.0 mm 0.00 in0.0 mm
02:57 PM 82.8°F28.2°C 68.9°F20.5°C 63% 2.5 mph SW4.0 kmh SW 4.5 mph7.2 kmh 29.99 in1015.6 mb 0.00 in0.0 mm 0.00 in0.0 mm 0.00 in0.0 mm
03:03 PM 82.6°F28.1°C 70.2°F21.2°C 66% 2.0 mph S3.2 kmh S 3.6 mph5.8 kmh 29.99 in1015.6 mb 0.00 in0.0 mm 0.00 in0.0 mm 0.00 in0.0 mm
03:07 PM 82.2°F27.9°C 69.8°F21.0°C 66% 2.9 mph SSW4.7 kmh SSW 6.7 mph10.8 kmh 29.99 in1015.6 mb 0.01 in0.3 mm 0.08 in2.0 mm 0.01 in0.3 mm
03:13 PM 81.7°F27.6°C 70.2°F21.2°C 68% 2.5 mph SW4.0 kmh SW 3.8 mph6.1 kmh 29.99 in1015.6 mb 0.02 in0.5 mm 0.08 in2.0 mm 0.02 in0.5 mm
03:17 PM 81.3°F27.4°C 70.2°F21.2°C 69% 2.2 mph SSW3.5 kmh SSW 3.8 mph6.1 kmh 29.99 in1015.6 mb 0.02 in0.5 mm 0.11 in2.8 mm 0.02 in0.5 mm
03:23 PM 80.8°F27.1°C 70.2°F21.2°C 70% 1.1 mph SSW1.8 kmh SSW 2.5 mph4.0 kmh 29.98 in1015.2 mb 0.03 in0.8 mm 0.06 in1.5 mm 0.03 in0.8 mm
03:27 PM 80.8°F27.1°C 70.2°F21.2°C 70% 2.5 mph SW4.0 kmh SW 4.7 mph7.6 kmh 29.98 in1015.2 mb 0.03 in0.8 mm 0.08 in2.0 mm 0.03 in0.8 mm
03:33 PM 80.6°F27.0°C 70.3°F21.3°C 71% Calm Calm 0.9 mph1.4 kmh 29.98 in1015.2 mb 0.04 in1.0 mm 0.01 in0.3 mm 0.04 in1.0 mm
03:37 PM 80.6°F27.0°C 70.3°F21.3°C 71% 0.9 mph S1.4 kmh S 1.6 mph2.6 kmh 29.98 in1015.2 mb 0.04 in1.0 mm 0.00 in0.0 mm 0.04 in1.0 mm
03:43 PM 81.5°F27.5°C 71.2°F21.8°C 71% 2.5 mph SSW4.0 kmh SSW 3.4 mph5.5 kmh 29.98 in1015.2 mb 0.04 in1.0 mm 0.00 in0.0 mm 0.04 in1.0 mm
03:47 PM 82.0°F27.8°C 70.9°F21.6°C 69% 3.8 mph S6.1 kmh S 6.5 mph10.5 kmh 29.98 in1015.2 mb 0.04 in1.0 mm 0.00 in0.0 mm 0.04 in1.0 mm
03:53 PM 82.6°F28.1°C 70.2°F21.2°C 66% 5.1 mph SW8.2 kmh SW 8.5 mph13.7 kmh 29.98 in1015.2 mb 0.04 in1.0 mm 0.00 in0.0 mm 0.04 in1.0 mm
03:57 PM 82.8°F28.2°C 70.2°F21.2°C 66% 2.5 mph S4.0 kmh S 3.6 mph5.8 kmh 29.97 in1014.9 mb 0.04 in1.0 mm 0.00 in0.0 mm 0.04 in1.0 mm
04:03 PM 82.8°F28.2°C 70.2°F21.2°C 66% 3.8 mph SW6.1 kmh SW 7.2 mph11.6 kmh 29.97 in1014.9 mb 0.03 in0.8 mm 0.00 in0.0 mm 0.04 in1.0 mm
04:07 PM 82.8°F28.2°C 70.2°F21.2°C 66% 3.6 mph SW5.8 kmh SW 5.8 mph9.3 kmh 29.97 in1014.9 mb 0.03 in0.8 mm 0.00 in0.0 mm 0.04 in1.0 mm
04:13 PM 83.1°F28.4°C 70.2°F21.2°C 65% 4.3 mph SSW6.9 kmh SSW 6.5 mph10.5 kmh 29.96 in1014.6 mb 0.02 in0.5 mm 0.00 in0.0 mm 0.04 in1.0 mm
04:17 PM 83.1°F28.4°C 69.3°F20.7°C 63% 3.4 mph SSW5.5 kmh SSW 6.3 mph10.1 kmh 29.96 in1014.6 mb 0.01 in0.3 mm 0.00 in0.0 mm 0.04 in1.0 mm
04:23 PM 82.9°F28.3°C 68.2°F20.1°C 61% 3.6 mph S5.8 kmh S 5.1 mph8.2 kmh 29.96 in1014.6 mb 0.01 in0.3 mm 0.00 in0.0 mm 0.04 in1.0 mm
04:27 PM 83.1°F28.4°C 68.4°F20.2°C 61% 5.1 mph SW8.2 kmh SW 8.7 mph14.0 kmh 29.96 in1014.6 mb 0.00 in0.0 mm 0.00 in0.0 mm 0.04 in1.0 mm
04:33 PM 83.3°F28.5°C 68.5°F20.3°C 61% 3.4 mph S5.5 kmh S 5.6 mph9.0 kmh 29.96 in1014.6 mb 0.00 in0.0 mm 0.00 in0.0 mm 0.04 in1.0 mm
04:37 PM 83.7°F28.7°C 68.7°F20.4°C 61% 7.2 mph SW11.6 kmh SW 12.3 mph19.8 kmh 29.96 in1014.6 mb 0.00 in0.0 mm 0.00 in0.0 mm 0.04 in1.0 mm
04:43 PM 83.1°F28.4°C 68.7°F20.4°C 62% 2.5 mph SW4.0 kmh SW 7.4 mph11.9 kmh 29.95 in1014.2 mb 0.00 in0.0 mm 0.00 in0.0 mm 0.04 in1.0 mm
04:47 PM 83.1°F28.4°C 68.4°F20.2°C 61% 4.5 mph SSW7.2 kmh SSW 8.5 mph13.7 kmh 29.95 in1014.2 mb 0.00 in0.0 mm 0.00 in0.0 mm 0.04 in1.0 mm
04:53 PM 83.7°F28.7°C 68.7°F20.4°C 61% 3.4 mph S5.5 kmh S 6.9 mph11.1 kmh 29.95 in1014.2 mb 0.00 in0.0 mm 0.00 in0.0 mm 0.04 in1.0 mm
04:57 PM 83.7°F28.7°C 68.7°F20.4°C 61% 2.2 mph S3.5 kmh S 6.7 mph10.8 kmh 29.95 in1014.2 mb 0.00 in0.0 mm 0.00 in0.0 mm 0.04 in1.0 mm
05:03 PM 83.5°F28.6°C 68.5°F20.3°C 61% 2.0 mph S3.2 kmh S 5.4 mph8.7 kmh 29.94 in1013.9 mb 0.00 in0.0 mm 0.00 in0.0 mm 0.04 in1.0 mm
05:08 PM 83.3°F28.5°C 67.5°F19.7°C 59% 3.4 mph SW5.5 kmh SW 7.6 mph12.2 kmh 29.94 in1013.9 mb 0.00 in0.0 mm 0.00 in0.0 mm 0.04 in1.0 mm
05:13 PM 83.1°F28.4°C 67.3°F19.6°C 59% 4.9 mph S7.9 kmh S 7.6 mph12.2 kmh 29.94 in1013.9 mb 0.00 in0.0 mm 0.00 in0.0 mm 0.04 in1.0 mm
05:18 PM 83.1°F28.4°C 67.3°F19.6°C 59% 3.1 mph W5.0 kmh W 7.6 mph12.2 kmh 29.94 in1013.9 mb 0.00 in0.0 mm 0.00 in0.0 mm 0.04 in1.0 mm
05:23 PM 82.9°F28.3°C 68.2°F20.1°C 61% 2.2 mph S3.5 kmh S 3.8 mph6.1 kmh 29.94 in1013.9 mb 0.00 in0.0 mm 0.00 in0.0 mm 0.04 in1.0 mm
05:27 PM 83.1°F28.4°C 68.4°F20.2°C 61% 1.8 mph S2.9 kmh S 4.0 mph6.4 kmh 29.94 in1013.9 mb 0.00 in0.0 mm 0.00 in0.0 mm 0.04 in1.0 mm
05:33 PM 83.5°F28.6°C 68.5°F20.3°C 61% 3.8 mph SSW6.1 kmh SSW 6.7 mph10.8 kmh 29.94 in1013.9 mb 0.00 in0.0 mm 0.00 in0.0 mm 0.04 in1.0 mm
05:38 PM 83.5°F28.6°C 68.5°F20.3°C 61% 2.7 mph S4.3 kmh S 4.3 mph6.9 kmh 29.94 in1013.9 mb 0.00 in0.0 mm 0.00 in0.0 mm 0.04 in1.0 mm
05:43 PM 83.1°F28.4°C 68.4°F20.2°C 61% 2.7 mph SW4.3 kmh SW 5.8 mph9.3 kmh 29.94 in1013.9 mb 0.00 in0.0 mm 0.00 in0.0 mm 0.04 in1.0 mm
05:47 PM 83.1°F28.4°C 68.4°F20.2°C 61% 3.6 mph SW5.8 kmh SW 6.0 mph9.7 kmh 29.94 in1013.9 mb 0.00 in0.0 mm 0.00 in0.0 mm 0.04 in1.0 mm
05:53 PM 83.3°F28.5°C 68.5°F20.3°C 61% 3.1 mph SW5.0 kmh SW 5.4 mph8.7 kmh 29.93 in1013.5 mb 0.00 in0.0 mm 0.00 in0.0 mm 0.04 in1.0 mm
05:57 PM 83.3°F28.5°C 68.5°F20.3°C 61% 1.3 mph SE2.1 kmh SE 2.5 mph4.0 kmh 29.93 in1013.5 mb 0.00 in0.0 mm 0.00 in0.0 mm 0.04 in1.0 mm
06:04 PM 83.3°F28.5°C 68.5°F20.3°C 61% 3.6 mph SW5.8 kmh SW 4.5 mph7.2 kmh 29.93 in1013.5 mb 0.00 in0.0 mm 0.00 in0.0 mm 0.04 in1.0 mm
06:07 PM 83.3°F28.5°C 68.5°F20.3°C 61% 2.0 mph S3.2 kmh S 2.9 mph4.7 kmh 29.93 in1013.5 mb 0.00 in0.0 mm 0.00 in0.0 mm 0.04 in1.0 mm
06:14 PM 83.3°F28.5°C 68.5°F20.3°C 61% 2.2 mph SSW3.5 kmh SSW 4.0 mph6.4 kmh 29.93 in1013.5 mb 0.00 in0.0 mm 0.00 in0.0 mm 0.04 in1.0 mm
06:18 PM 83.1°F28.4°C 68.4°F20.2°C 61% 2.9 mph SW4.7 kmh SW 5.6 mph9.0 kmh 29.93 in1013.5 mb 0.00 in0.0 mm 0.00 in0.0 mm 0.04 in1.0 mm
06:24 PM 83.1°F28.4°C 68.4°F20.2°C 61% 4.3 mph SSW6.9 kmh SSW 6.9 mph11.1 kmh 29.93 in1013.5 mb 0.00 in0.0 mm 0.00 in0.0 mm 0.04 in1.0 mm
06:28 PM 83.1°F28.4°C 68.4°F20.2°C 61% 2.9 mph SW4.7 kmh SW 5.6 mph9.0 kmh 29.93 in1013.5 mb 0.00 in0.0 mm 0.00 in0.0 mm 0.04 in1.0 mm
06:34 PM 82.9°F28.3°C 68.2°F20.1°C 61% 3.1 mph SW5.0 kmh SW 5.6 mph9.0 kmh 29.93 in1013.5 mb 0.00 in0.0 mm 0.00 in0.0 mm 0.04 in1.0 mm
06:38 PM 82.8°F28.2°C 68.0°F20.0°C 61% 2.7 mph S4.3 kmh S 4.7 mph7.6 kmh 29.94 in1013.9 mb 0.00 in0.0 mm 0.00 in0.0 mm 0.04 in1.0 mm
06:44 PM 82.4°F28.0°C 67.6°F19.8°C 61% 3.8 mph SW6.1 kmh SW 4.9 mph7.9 kmh 29.93 in1013.5 mb 0.00 in0.0 mm 0.00 in0.0 mm 0.04 in1.0 mm
06:48 PM 82.4°F28.0°C 68.0°F20.0°C 62% 4.0 mph SSW6.4 kmh SSW 5.8 mph9.3 kmh 29.94 in1013.9 mb 0.00 in0.0 mm 0.00 in0.0 mm 0.04 in1.0 mm
06:54 PM 82.2°F27.9°C 67.8°F19.9°C 62% 4.7 mph SSW7.6 kmh SSW 6.5 mph10.5 kmh 29.94 in1013.9 mb 0.00 in0.0 mm 0.00 in0.0 mm 0.04 in1.0 mm
06:58 PM 82.2°F27.9°C 67.8°F19.9°C 62% 2.2 mph SW3.5 kmh SW 4.7 mph7.6 kmh 29.94 in1013.9 mb 0.00 in0.0 mm 0.00 in0.0 mm 0.04 in1.0 mm
07:04 PM 82.0°F27.8°C 68.2°F20.1°C 63% 1.8 mph SW2.9 kmh SW 2.7 mph4.3 kmh 29.94 in1013.9 mb 0.00 in0.0 mm 0.00 in0.0 mm 0.04 in1.0 mm
07:08 PM 82.0°F27.8°C 68.2°F20.1°C 63% 2.5 mph SW4.0 kmh SW 3.4 mph5.5 kmh 29.94 in1013.9 mb 0.00 in0.0 mm 0.00 in0.0 mm 0.04 in1.0 mm
07:14 PM 81.9°F27.7°C 68.5°F20.3°C 64% 0.9 mph SSE1.4 kmh SSE 1.6 mph2.6 kmh 29.94 in1013.9 mb 0.00 in0.0 mm 0.00 in0.0 mm 0.04 in1.0 mm
07:18 PM 81.7°F27.6°C 68.4°F20.2°C 64% 1.8 mph SW2.9 kmh SW 2.7 mph4.3 kmh 29.93 in1013.5 mb 0.00 in0.0 mm 0.00 in0.0 mm 0.04 in1.0 mm
07:23 PM 81.7°F27.6°C 68.7°F20.4°C 65% 2.9 mph SW4.7 kmh SW 6.3 mph10.1 kmh 29.93 in1013.5 mb 0.00 in0.0 mm 0.00 in0.0 mm 0.04 in1.0 mm
07:28 PM 81.7°F27.6°C 68.7°F20.4°C 65% 2.0 mph SSW3.2 kmh SSW 2.7 mph4.3 kmh 29.93 in1013.5 mb 0.00 in0.0 mm 0.00 in0.0 mm 0.04 in1.0 mm
07:34 PM 81.3°F27.4°C 68.9°F20.5°C 66% 3.4 mph SW5.5 kmh SW 5.1 mph8.2 kmh 29.93 in1013.5 mb 0.00 in0.0 mm 0.00 in0.0 mm 0.04 in1.0 mm
07:38 PM 81.3°F27.4°C 68.9°F20.5°C 66% 1.3 mph WSW2.1 kmh WSW 2.9 mph4.7 kmh 29.93 in1013.5 mb 0.00 in0.0 mm 0.00 in0.0 mm 0.04 in1.0 mm
07:44 PM 81.1°F27.3°C 68.7°F20.4°C 66% 2.2 mph SW3.5 kmh SW 3.1 mph5.0 kmh 29.93 in1013.5 mb 0.00 in0.0 mm 0.00 in0.0 mm 0.04 in1.0 mm
07:48 PM 81.0°F27.2°C 68.5°F20.3°C 66% 2.7 mph SW4.3 kmh SW 4.5 mph7.2 kmh 29.93 in1013.5 mb 0.00 in0.0 mm 0.00 in0.0 mm 0.04 in1.0 mm
07:54 PM 81.0°F27.2°C 68.5°F20.3°C 66% 2.0 mph SSW3.2 kmh SSW 2.9 mph4.7 kmh 29.93 in1013.5 mb 0.00 in0.0 mm 0.00 in0.0 mm 0.04 in1.0 mm
07:58 PM 80.8°F27.1°C 68.4°F20.2°C 66% 3.8 mph SW6.1 kmh SW 5.8 mph9.3 kmh 29.93 in1013.5 mb 0.00 in0.0 mm 0.00 in0.0 mm 0.04 in1.0 mm
08:04 PM 80.8°F27.1°C 68.4°F20.2°C 66% 2.5 mph SSW4.0 kmh SSW 4.3 mph6.9 kmh 29.94 in1013.9 mb 0.00 in0.0 mm 0.00 in0.0 mm 0.04 in1.0 mm
08:08 PM 80.8°F27.1°C 68.4°F20.2°C 66% 2.2 mph SW3.5 kmh SW 3.8 mph6.1 kmh 29.94 in1013.9 mb 0.00 in0.0 mm 0.00 in0.0 mm 0.04 in1.0 mm
08:14 PM 80.6°F27.0°C 69.1°F20.6°C 68% 2.2 mph SW3.5 kmh SW 3.4 mph5.5 kmh 29.94 in1013.9 mb 0.00 in0.0 mm 0.00 in0.0 mm 0.04 in1.0 mm
08:18 PM 80.4°F26.9°C 68.9°F20.5°C 68% 2.0 mph SSW3.2 kmh SSW 3.8 mph6.1 kmh 29.94 in1013.9 mb 0.00 in0.0 mm 0.00 in0.0 mm 0.04 in1.0 mm
08:24 PM 80.4°F26.9°C 68.9°F20.5°C 68% 2.0 mph SW3.2 kmh SW 2.9 mph4.7 kmh 29.94 in1013.9 mb 0.00 in0.0 mm 0.00 in0.0 mm 0.04 in1.0 mm
08:28 PM 80.4°F26.9°C 68.9°F20.5°C 68% 1.3 mph SSW2.1 kmh SSW 2.5 mph4.0 kmh 29.93 in1013.5 mb 0.00 in0.0 mm 0.00 in0.0 mm 0.04 in1.0 mm
08:34 PM 80.2°F26.8°C 69.1°F20.6°C 69% 3.8 mph WSW6.1 kmh WSW 7.6 mph12.2 kmh 29.97 in1014.9 mb 0.01 in0.3 mm 0.10 in2.5 mm 0.05 in1.3 mm
08:38 PM 78.4°F25.8°C 67.8°F19.9°C 70% 4.3 mph SSW6.9 kmh SSW 10.1 mph16.3 kmh 29.98 in1015.2 mb 0.04 in1.0 mm 0.42 in10.7 mm 0.07 in1.8 mm
08:44 PM 76.5°F24.7°C 66.7°F19.3°C 72% 1.8 mph SW2.9 kmh SW 4.0 mph6.4 kmh 29.97 in1014.9 mb 0.07 in1.8 mm 0.36 in9.1 mm 0.11 in2.8 mm
08:48 PM 75.4°F24.1°C 66.2°F19.0°C 73% 1.1 mph SW1.8 kmh SW 3.4 mph5.5 kmh 29.97 in1014.9 mb 0.09 in2.3 mm 0.20 in5.1 mm 0.12 in3.0 mm
08:54 PM 74.5°F23.6°C 66.0°F18.9°C 75% 2.5 mph S4.0 kmh S 4.5 mph7.2 kmh 29.97 in1014.9 mb 0.10 in2.5 mm 0.12 in3.0 mm 0.14 in3.6 mm
08:58 PM 74.5°F23.6°C 66.0°F18.9°C 75% 0.7 mph S1.1 kmh S 1.3 mph2.1 kmh 29.97 in1014.9 mb 0.11 in2.8 mm 0.11 in2.8 mm 0.14 in3.6 mm
09:04 PM 74.1°F23.4°C 66.0°F18.9°C 76% 0.2 mph SE0.3 kmh SE 1.8 mph2.9 kmh 29.97 in1014.9 mb 0.12 in3.0 mm 0.01 in0.3 mm 0.15 in3.8 mm
09:08 PM 74.1°F23.4°C 66.0°F18.9°C 76% 1.3 mph E2.1 kmh E 1.8 mph2.9 kmh 29.97 in1014.9 mb 0.13 in3.3 mm 0.11 in2.8 mm 0.16 in4.1 mm
09:14 PM 73.6°F23.1°C 65.5°F18.6°C 76% 0.4 mph E0.6 kmh E 1.8 mph2.9 kmh 29.97 in1014.9 mb 0.14 in3.6 mm 0.17 in4.3 mm 0.18 in4.6 mm
09:18 PM 73.4°F23.0°C 65.3°F18.5°C 76% 1.8 mph E2.9 kmh E 2.5 mph4.0 kmh 29.97 in1014.9 mb 0.16 in4.1 mm 0.20 in5.1 mm 0.19 in4.8 mm
09:24 PM 73.6°F23.1°C 65.5°F18.6°C 76% 1.1 mph SSE1.8 kmh SSE 1.6 mph2.6 kmh 29.98 in1015.2 mb 0.18 in4.6 mm 0.20 in5.1 mm 0.21 in5.3 mm
09:28 PM 73.4°F23.0°C 65.3°F18.5°C 76% 0.2 mph SSE0.3 kmh SSE 1.3 mph2.1 kmh 29.98 in1015.2 mb 0.19 in4.8 mm 0.15 in3.8 mm 0.22 in5.6 mm
09:34 PM 73.4°F23.0°C 65.3°F18.5°C 76% 1.1 mph SE1.8 kmh SE 1.6 mph2.6 kmh 29.97 in1014.9 mb 0.19 in4.8 mm 0.03 in0.8 mm 0.23 in5.8 mm
09:38 PM 73.2°F22.9°C 65.1°F18.4°C 76% 1.6 mph ESE2.6 kmh ESE 2.2 mph3.5 kmh 29.97 in1014.9 mb 0.17 in4.3 mm 0.00 in0.0 mm 0.24 in6.1 mm
09:44 PM 73.2°F22.9°C 65.1°F18.4°C 76% 1.6 mph SE2.6 kmh SE 2.0 mph3.2 kmh 29.98 in1015.2 mb 0.14 in3.6 mm 0.00 in0.0 mm 0.25 in6.4 mm
09:48 PM 72.7°F22.6°C 65.1°F18.4°C 77% 1.1 mph SE1.8 kmh SE 2.0 mph3.2 kmh 29.98 in1015.2 mb 0.13 in3.3 mm 0.00 in0.0 mm 0.25 in6.4 mm
09:53 PM 72.9°F22.7°C 64.9°F18.3°C 76% 1.1 mph SE1.8 kmh SE 1.8 mph2.9 kmh 29.98 in1015.2 mb 0.13 in3.3 mm 0.01 in0.3 mm 0.27 in6.9 mm
09:57 PM 72.7°F22.6°C 65.1°F18.4°C 77% 0.2 mph SE0.3 kmh SE 1.6 mph2.6 kmh 29.98 in1015.2 mb 0.13 in3.3 mm 0.00 in0.0 mm 0.27 in6.9 mm
10:03 PM 72.9°F22.7°C 65.3°F18.5°C 77% 1.3 mph SSE2.1 kmh SSE 2.5 mph4.0 kmh 29.98 in1015.2 mb 0.12 in3.0 mm 0.00 in0.0 mm 0.28 in7.1 mm
10:07 PM 72.9°F22.7°C 65.3°F18.5°C 77% 0.4 mph SE0.6 kmh SE 1.3 mph2.1 kmh 29.98 in1015.2 mb 0.12 in3.0 mm 0.00 in0.0 mm 0.28 in7.1 mm
10:13 PM 72.7°F22.6°C 64.8°F18.2°C 76% 1.1 mph SW1.8 kmh SW 2.7 mph4.3 kmh 29.98 in1015.2 mb 0.11 in2.8 mm 0.00 in0.0 mm 0.29 in7.4 mm
10:17 PM 72.9°F22.7°C 64.9°F18.3°C 76% 0.9 mph SE1.4 kmh SE 1.6 mph2.6 kmh 29.97 in1014.9 mb 0.10 in2.5 mm 0.00 in0.0 mm 0.29 in7.4 mm
10:23 PM 72.7°F22.6°C 65.1°F18.4°C 77% 0.2 mph S0.3 kmh S 1.6 mph2.6 kmh 29.97 in1014.9 mb 0.08 in2.0 mm 0.00 in0.0 mm 0.29 in7.4 mm
10:27 PM 72.3°F22.4°C 64.8°F18.2°C 77% 1.1 mph ESE1.8 kmh ESE 1.3 mph2.1 kmh 29.97 in1014.9 mb 0.07 in1.8 mm 0.00 in0.0 mm 0.29 in7.4 mm
10:33 PM 72.5°F22.5°C 64.9°F18.3°C 77% 1.1 mph SE1.8 kmh SE 1.6 mph2.6 kmh 29.97 in1014.9 mb 0.05 in1.3 mm 0.00 in0.0 mm 0.29 in7.4 mm
10:37 PM 72.7°F22.6°C 64.8°F18.2°C 76% 0.4 mph SE0.6 kmh SE 1.3 mph2.1 kmh 29.97 in1014.9 mb 0.05 in1.3 mm 0.00 in0.0 mm 0.29 in7.4 mm
10:43 PM 72.7°F22.6°C 64.8°F18.2°C 76% 0.2 mph SE0.3 kmh SE 0.9 mph1.4 kmh 29.97 in1014.9 mb 0.04 in1.0 mm 0.00 in0.0 mm 0.29 in7.4 mm
10:47 PM 72.7°F22.6°C 64.8°F18.2°C 76% 1.3 mph SE2.1 kmh SE 2.0 mph3.2 kmh 29.97 in1014.9 mb 0.03 in0.8 mm 0.00 in0.0 mm 0.29 in7.4 mm
10:53 PM 72.7°F22.6°C 64.8°F18.2°C 76% Calm Calm -- 29.97 in1014.9 mb 0.02 in0.5 mm 0.00 in0.0 mm 0.29 in7.4 mm
10:57 PM 72.7°F22.6°C 64.8°F18.2°C 76% 0.2 mph E0.3 kmh E 1.1 mph1.8 kmh 29.97 in1014.9 mb 0.01 in0.3 mm 0.00 in0.0 mm 0.29 in7.4 mm
11:03 PM 72.5°F22.5°C 64.6°F18.1°C 76% Calm Calm -- 29.97 in1014.9 mb 0.01 in0.3 mm 0.00 in0.0 mm 0.29 in7.4 mm
11:07 PM 72.1°F22.3°C 64.6°F18.1°C 77% Calm Calm -- 29.98 in1015.2 mb 0.01 in0.3 mm 0.00 in0.0 mm 0.29 in7.4 mm
11:13 PM 72.3°F22.4°C 64.8°F18.2°C 77% 1.1 mph ESE1.8 kmh ESE 1.6 mph2.6 kmh 29.98 in1015.2 mb 0.00 in0.0 mm 0.00 in0.0 mm 0.29 in7.4 mm
11:17 PM 72.3°F22.4°C 64.8°F18.2°C 77% 1.3 mph SE2.1 kmh SE 1.8 mph2.9 kmh 29.98 in1015.2 mb 0.00 in0.0 mm 0.00 in0.0 mm 0.29 in7.4 mm
11:23 PM 72.3°F22.4°C 64.8°F18.2°C 77% 0.7 mph S1.1 kmh S 1.3 mph2.1 kmh 29.98 in1015.2 mb 0.00 in0.0 mm 0.00 in0.0 mm 0.29 in7.4 mm
11:27 PM 72.3°F22.4°C 64.8°F18.2°C 77% 0.4 mph SSE0.6 kmh SSE 1.3 mph2.1 kmh 29.97 in1014.9 mb 0.00 in0.0 mm 0.00 in0.0 mm 0.29 in7.4 mm
11:33 PM 72.3°F22.4°C 64.8°F18.2°C 77% 0.9 mph SE1.4 kmh SE 1.3 mph2.1 kmh 29.97 in1014.9 mb 0.00 in0.0 mm 0.00 in0.0 mm 0.29 in7.4 mm
11:37 PM 72.1°F22.3°C 64.6°F18.1°C 77% 0.2 mph SE0.3 kmh SE 1.1 mph1.8 kmh 29.97 in1014.9 mb 0.00 in0.0 mm 0.00 in0.0 mm 0.29 in7.4 mm
11:43 PM 72.1°F22.3°C 64.6°F18.1°C 77% 1.3 mph SE2.1 kmh SE 1.8 mph2.9 kmh 29.97 in1014.9 mb 0.00 in0.0 mm 0.00 in0.0 mm 0.29 in7.4 mm
11:47 PM 72.1°F22.3°C 64.6°F18.1°C 77% 0.2 mph SSE0.3 kmh SSE 0.9 mph1.4 kmh 29.97 in1014.9 mb 0.00 in0.0 mm 0.00 in0.0 mm 0.29 in7.4 mm
11:53 PM 72.1°F22.3°C 64.6°F18.1°C 77% 0.4 mph S0.6 kmh S 1.3 mph2.1 kmh 29.97 in1014.9 mb 0.00 in0.0 mm 0.00 in0.0 mm 0.29 in7.4 mm